Time;durP1;ratioP1;P1;durP2;ratioP2;P2;SDS_P1;SDS_P2;PMS_P1;PMS_P2;Temp;Humidity;BMP_temperature;BMP_pressure;BME280_temperature;BME280_humidity;BME280_pressure;Samples;Min_cycle;Max_cycle;Signal;HPM_P1;HPM_P2
2022/08/31 00:06:21;;;;;;;6.28;4.20;;;21.80;99.90;;;21.15;72.84;97431.69;4992584;28;20410;-73
2022/08/31 00:08:47;;;;;;;5.80;4.63;;;21.70;99.90;;;21.13;74.12;97428.50;4992620;28;20398;-73
2022/08/31 00:11:14;;;;;;;10.30;4.82;;;21.70;99.90;;;21.12;72.68;97432.34;4992318;28;20470;-73
2022/08/31 00:13:41;;;;;;;9.88;5.20;;;21.70;99.90;;;21.10;75.37;97427.25;4991814;28;20411;-72
2022/08/31 00:16:11;;;;;;;12.75;4.68;;;21.70;99.90;;;21.10;74.14;97429.16;4992224;28;20464;-73
2022/08/31 00:18:37;;;;;;;7.82;5.07;;;21.70;99.90;;;21.08;73.83;97436.75;4992299;28;20482;-71
2022/08/31 00:21:04;;;;;;;7.90;4.80;;;21.60;99.90;;;21.05;70.17;97438.16;4992109;28;20463;-71
2022/08/31 00:23:30;;;;;;;6.70;4.85;;;21.60;99.90;;;21.04;73.13;97438.50;4991680;28;20402;-72
2022/08/31 00:25:56;;;;;;;8.90;5.13;;;21.60;99.90;;;21.05;74.25;97446.25;4992176;28;20510;-73
2022/08/31 00:28:22;;;;;;;10.57;5.35;;;21.60;99.90;;;21.11;72.11;97461.16;4992112;28;20497;-73
2022/08/31 00:30:49;;;;;;;10.18;4.50;;;21.70;99.90;;;21.12;64.66;97462.75;4991075;28;20489;-73
2022/08/31 00:33:17;;;;;;;10.50;5.00;;;21.70;98.20;;;21.11;67.65;97480.00;4991481;28;20468;-73
2022/08/31 00:35:43;;;;;;;9.87;4.73;;;21.70;98.70;;;21.08;62.50;97482.50;4992052;28;20974;-73
2022/08/31 00:38:11;;;;;;;6.15;4.43;;;21.60;93.90;;;21.05;63.55;97483.94;4974439;28;20791;-73
2022/08/31 00:40:37;;;;;;;8.10;4.70;;;21.60;95.00;;;21.04;65.76;97485.06;4991757;28;20390;-73
2022/08/31 00:43:04;;;;;;;10.88;5.28;;;21.60;96.30;;;21.00;63.73;97502.94;4991333;28;20469;-72
2022/08/31 00:45:31;;;;;;;10.75;5.40;;;21.50;93.30;;;20.97;65.76;97511.66;4991070;28;21332;-73
2022/08/31 00:47:57;;;;;;;14.02;5.55;;;21.50;95.50;;;20.79;66.90;97516.19;4991730;28;20438;-73
2022/08/31 00:50:26;;;;;;;14.80;7.13;;;21.40;95.30;;;20.48;75.55;97515.47;4991472;28;20927;-73
2022/08/31 00:52:56;;;;;;;29.52;9.13;;;21.20;99.90;;;20.19;81.14;97505.22;4991029;28;20473;-73
2022/08/31 00:55:29;;;;;;;16.77;8.10;;;20.90;99.90;;;19.86;84.30;97507.41;4991616;28;20776;-72
2022/08/31 00:57:59;;;;;;;18.15;9.73;;;20.60;99.90;;;19.52;87.58;97517.97;4991529;28;20403;-72
2022/08/31 01:00:27;;;;;;;15.45;9.10;;;20.30;99.90;;;19.32;88.71;97514.59;4991424;28;20403;-72
2022/08/31 01:02:54;;;;;;;17.20;11.27;;;20.10;99.90;;;19.16;91.34;97517.97;4990845;28;20415;-72
2022/08/31 01:05:20;;;;;;;21.05;13.05;;;19.90;99.90;;;19.06;93.03;97518.97;4991281;28;20959;-72
2022/08/31 01:07:49;;;;;;;20.65;13.25;;;19.90;99.90;;;19.05;95.26;97530.81;4973995;28;20418;-72
2022/08/31 01:10:19;;;;;;;21.10;12.70;;;19.80;99.90;;;19.07;96.97;97533.19;4991244;28;20422;-72
2022/08/31 01:12:46;;;;;;;25.17;14.48;;;19.80;99.90;;;19.06;98.81;97526.22;4991239;28;20411;-72
2022/08/31 01:15:14;;;;;;;32.83;16.33;;;19.90;99.90;;;19.09;100.00;97528.31;4991351;28;20489;-72
2022/08/31 01:17:41;;;;;;;31.67;17.65;;;19.80;99.90;;;18.89;100.00;97524.19;4973673;28;20765;-73
2022/08/31 01:20:18;;;;;;;59.67;24.40;;;19.70;99.90;;;18.94;100.00;97526.78;4991248;28;20402;-72
2022/08/31 01:23:06;;;;;;;75.53;26.80;;;19.60;99.90;;;18.61;100.00;97514.59;4991003;28;20413;-72
2022/08/31 01:25:34;;;;;;;48.15;22.20;;;19.40;99.90;;;18.32;100.00;97506.81;4991426;28;20481;-73
2022/08/31 01:28:03;;;;;;;70.00;27.10;;;19.10;99.90;;;18.18;100.00;97522.91;4991036;28;20469;-73
2022/08/31 01:30:29;;;;;;;144.38;37.47;;;18.90;99.90;;;18.08;100.00;97520.41;4990931;28;20464;-73
2022/08/31 01:32:55;;;;;;;81.43;31.83;;;18.70;99.90;;;17.85;100.00;97514.09;4990474;28;20414;-73
2022/08/31 01:35:21;;;;;;;84.73;29.97;;;18.50;99.90;;;17.53;100.00;97509.50;4991112;28;20410;-73
2022/08/31 01:37:47;;;;;;;72.03;27.80;;;18.20;99.90;;;17.29;100.00;97512.28;4991027;28;20448;-73
2022/08/31 01:40:15;;;;;;;50.83;24.30;;;17.90;99.90;;;17.07;100.00;97517.44;4991027;28;20856;-73
2022/08/31 01:42:41;;;;;;;55.33;24.83;;;17.70;99.90;;;16.90;100.00;97523.31;4977239;28;20877;-73
2022/08/31 01:45:10;;;;;;;130.23;37.20;;;17.50;99.90;;;16.79;100.00;97534.41;4994923;28;20489;-73
2022/08/31 01:47:37;;;;;;;109.25;40.80;;;17.50;99.90;;;16.82;100.00;97523.16;4994949;28;20465;-73
2022/08/31 01:50:04;;;;;;;198.25;52.10;;;17.60;99.90;;;17.16;100.00;97522.94;5001293;23;20561;-71
2022/08/31 01:52:30;;;;;;;144.18;46.72;;;17.80;99.90;;;17.15;100.00;97511.44;4955748;29;20805;-72
2022/08/31 01:54:56;;;;;;;128.00;46.63;;;17.90;99.90;;;17.27;100.00;97508.34;4955266;29;20433;-72
2022/08/31 01:57:23;;;;;;;97.43;42.72;;;18.00;99.90;;;17.19;100.00;97506.31;4956323;29;20501;-72
2022/08/31 01:59:49;;;;;;;88.53;38.60;;;17.80;99.90;;;17.03;100.00;97514.56;4957917;28;20438;-72
2022/08/31 02:02:15;;;;;;;143.97;47.27;;;17.70;99.90;;;16.95;100.00;97519.75;4975288;28;20469;-72
2022/08/31 02:04:41;;;;;;;143.45;50.97;;;17.80;99.90;;;17.12;100.00;97514.72;4974950;28;20806;-72
2022/08/31 02:07:07;;;;;;;172.55;56.58;;;17.90;99.90;;;17.27;100.00;97513.69;4975338;28;20802;-71
2022/08/31 02:09:33;;;;;;;134.02;49.65;;;18.00;99.90;;;17.13;100.00;97512.84;4975116;28;20636;-72
2022/08/31 02:11:59;;;;;;;162.48;54.22;;;17.80;99.90;;;17.22;100.00;97516.41;4975077;28;20447;-72
2022/08/31 02:14:26;;;;;;;149.20;51.70;;;17.90;99.90;;;17.21;100.00;97520.22;4974601;28;20415;-72
2022/08/31 02:16:54;;;;;;;135.25;49.80;;;18.00;99.90;;;17.19;100.00;97527.72;4975022;28;20408;-72
2022/08/31 02:19:20;;;;;;;123.18;47.85;;;18.00;99.90;;;17.19;100.00;97530.38;4974939;28;20953;-72
2022/08/31 02:21:46;;;;;;;227.55;66.22;;;18.00;99.90;;;17.38;100.00;97523.94;4974803;28;20404;-71
2022/08/31 02:24:12;;;;;;;198.52;62.72;;;18.20;99.90;;;17.47;100.00;97525.94;4974378;28;20458;-72
2022/08/31 02:26:39;;;;;;;140.48;51.45;;;18.20;99.90;;;17.36;100.00;97520.78;4974805;28;20416;-72
2022/08/31 02:29:06;;;;;;;219.85;62.85;;;18.20;99.90;;;17.36;100.00;97523.44;4974771;28;20400;-72
2022/08/31 02:31:34;;;;;;;263.05;74.22;;;18.20;99.90;;;17.53;100.00;97517.53;4974580;28;20942;-72
2022/08/31 02:34:00;;;;;;;429.88;90.38;;;18.30;99.90;;;17.38;100.00;97523.94;4974280;28;20419;-72
2022/08/31 02:36:26;;;;;;;302.20;70.25;;;18.20;99.90;;;17.36;100.00;97520.78;4974789;28;20400;-72
2022/08/31 02:38:52;;;;;;;192.88;56.65;;;18.20;99.90;;;17.29;100.00;97531.03;4974532;28;20766;-72
2022/08/31 02:41:18;;;;;;;225.70;64.55;;;18.10;99.90;;;17.50;100.00;97520.03;4974450;28;20440;-73
2022/08/31 02:43:45;;;;;;;159.17;53.10;;;18.10;99.90;;;17.23;100.00;97510.78;4973980;28;20404;-72
2022/08/31 02:46:11;;;;;;;351.90;76.32;;;18.00;99.90;;;17.22;100.00;97514.53;4974515;28;20415;-71
2022/08/31 02:48:38;;;;;;;345.67;80.45;;;18.00;99.90;;;17.28;100.00;97513.41;4974465;28;20466;-72
2022/08/31 02:51:08;;;;;;;301.48;72.75;;;18.00;99.90;;;17.24;100.00;97524.97;4974118;28;20416;-72
2022/08/31 02:53:35;;;;;;;204.55;55.92;;;18.00;99.90;;;17.11;100.00;97523.00;4972970;28;20461;-72
2022/08/31 02:56:01;;;;;;;320.25;71.82;;;17.90;99.90;;;17.10;100.00;97524.91;4974426;28;20412;-72
2022/08/31 02:58:28;;;;;;;255.70;63.77;;;18.00;99.90;;;17.13;100.00;97526.22;4974229;28;20434;-72
2022/08/31 03:00:54;;;;;;;234.95;65.90;;;17.90;99.90;;;17.20;100.00;97530.09;4956839;28;20495;-72
2022/08/31 03:03:21;;;;;;;409.50;82.85;;;18.00;99.90;;;17.18;100.00;97529.59;4973747;28;20432;-72
2022/08/31 03:05:49;;;;;;;710.03;122.50;;;18.00;99.90;;;17.20;100.00;97519.41;4974084;28;20508;-71
2022/08/31 03:08:15;;;;;;;257.52;65.28;;;18.00;99.90;;;17.21;100.00;97517.53;4974107;28;20878;-72
2022/08/31 03:10:41;;;;;;;469.30;89.80;;;18.00;99.90;;;17.30;100.00;97513.09;4973902;28;20424;-72
2022/08/31 03:13:07;;;;;;;498.93;91.77;;;18.10;99.90;;;17.28;100.00;97510.72;4973354;28;20756;-72
2022/08/31 03:15:33;;;;;;;202.27;57.43;;;18.10;99.90;;;17.20;100.00;97513.25;4973962;28;20408;-72
2022/08/31 03:17:59;;;;;;;351.48;75.30;;;17.90;99.90;;;17.24;100.00;97512.38;4974075;28;20863;-71
2022/08/31 03:20:27;;;;;;;259.20;66.53;;;18.10;99.90;;;17.22;100.00;97511.88;4973910;28;20837;-71
2022/08/31 03:22:55;;;;;;;654.60;116.68;;;18.10;99.90;;;17.27;100.00;97519.03;4973394;28;20413;-71
2022/08/31 03:25:21;;;;;;;424.25;84.70;;;18.10;99.90;;;17.25;100.00;97529.22;4973764;28;20408;-71
2022/08/31 03:27:47;;;;;;;407.25;82.00;;;18.10;99.90;;;17.27;100.00;97524.38;4973707;28;20779;-72
2022/08/31 03:30:18;;;;;;;200.57;59.25;;;18.10;99.90;;;17.25;100.00;97529.22;4973585;28;20423;-72
2022/08/31 03:32:44;;;;;;;348.25;81.53;;;18.10;99.90;;;17.41;100.00;97523.38;4973324;28;20451;-72
2022/08/31 03:35:11;;;;;;;297.20;76.00;;;18.10;99.90;;;17.41;100.00;97526.03;4973507;28;20409;-71
2022/08/31 03:37:37;;;;;;;290.48;72.07;;;18.20;99.90;;;17.33;100.00;97520.53;4956234;28;20910;-71
2022/08/31 03:40:07;;;;;;;371.55;77.97;;;18.10;99.90;;;17.32;100.00;97513.59;4973480;28;20419;-71
2022/08/31 03:42:33;;;;;;;214.70;62.00;;;18.10;99.90;;;17.27;100.00;97505.66;4973203;28;20408;-71
2022/08/31 03:44:59;;;;;;;237.55;66.03;;;18.10;99.90;;;17.31;100.00;97510.13;4973007;28;20969;-72
2022/08/31 03:47:25;;;;;;;297.45;72.43;;;18.10;99.90;;;17.33;100.00;97499.94;4973453;28;20423;-71
2022/08/31 03:49:51;;;;;;;304.10;71.40;;;18.10;99.90;;;17.37;100.00;97505.50;4972951;28;20420;-72
2022/08/31 03:52:17;;;;;;;397.33;82.47;;;18.10;99.90;;;17.32;100.00;97508.25;4973205;28;20747;-72
2022/08/31 03:54:43;;;;;;;191.80;58.75;;;18.10;99.90;;;17.30;100.00;97505.84;4972887;28;20408;-71
2022/08/31 03:57:10;;;;;;;242.57;68.93;;;18.10;99.90;;;17.38;100.00;97507.88;4973163;28;20503;-71
2022/08/31 03:59:36;;;;;;;415.45;84.65;;;18.10;99.90;;;17.37;100.00;97516.19;4973089;28;20462;-72
2022/08/31 04:02:02;;;;;;;185.27;59.93;;;18.10;99.90;;;17.39;100.00;97520.19;4973135;28;20416;-71
2022/08/31 04:04:28;;;;;;;261.92;68.75;;;18.10;99.90;;;17.31;100.00;97522.72;4972570;28;20490;-71
2022/08/31 04:06:54;;;;;;;305.65;73.78;;;18.10;99.90;;;17.31;100.00;97538.75;4972970;28;20519;-71
2022/08/31 04:09:20;;;;;;;214.82;63.47;;;18.10;99.90;;;17.31;100.00;97539.56;4972996;28;20408;-71
2022/08/31 04:11:46;;;;;;;229.75;66.75;;;18.10;99.90;;;17.35;100.00;97543.25;4955446;28;21025;-72
2022/08/31 04:14:14;;;;;;;313.47;74.63;;;18.10;99.90;;;17.33;100.00;97547.31;4972432;28;20413;-71
2022/08/31 04:16:41;;;;;;;210.13;63.85;;;18.10;99.90;;;17.33;100.00;97544.63;4972899;28;20443;-72
2022/08/31 04:19:08;;;;;;;241.48;69.40;;;18.10;99.90;;;17.30;100.00;97550.53;4972823;28;20412;-72
2022/08/31 04:21:34;;;;;;;177.02;57.80;;;18.10;99.90;;;17.26;100.00;97542.31;4972608;28;20408;-71
2022/08/31 04:24:01;;;;;;;262.05;62.63;;;18.00;99.90;;;17.28;100.00;97542.84;4972087;28;20408;-71
2022/08/31 04:26:30;;;;;;;577.53;113.93;;;18.00;99.90;;;17.33;100.00;97544.63;4972558;28;20931;-71
2022/08/31 04:28:56;;;;;;;340.30;74.72;;;18.10;99.90;;;17.26;100.00;97542.31;4972623;28;20948;-72
2022/08/31 04:31:25;;;;;;;405.83;87.30;;;18.10;99.90;;;17.30;100.00;97537.97;4972536;28;20499;-72
2022/08/31 04:33:51;;;;;;;253.80;66.15;;;18.10;99.90;;;17.25;100.00;97548.75;4971735;28;20416;-72
2022/08/31 04:36:20;;;;;;;287.13;66.90;;;18.00;99.90;;;17.23;100.00;97550.91;4972439;28;20404;-72
2022/08/31 04:38:49;;;;;;;165.65;55.60;;;18.00;99.90;;;17.23;100.00;97555.47;4972396;28;20400;-72
2022/08/31 04:41:19;;;;;;;517.70;94.43;;;18.00;99.90;;;17.23;100.00;97547.44;4955012;28;20834;-72
2022/08/31 04:43:49;;;;;;;248.98;70.57;;;18.00;99.90;;;17.26;100.00;97547.66;4971840;28;20408;-71
2022/08/31 04:46:16;;;;;;;284.15;67.88;;;18.00;99.90;;;17.14;100.00;97547.28;4972267;28;20466;-72
2022/08/31 04:48:44;;;;;;;214.57;65.65;;;17.90;99.90;;;17.21;100.00;97552.31;4972215;28;20412;-72
2022/08/31 04:51:13;;;;;;;202.48;62.05;;;17.90;99.90;;;17.11;100.00;97558.59;4971935;28;20420;-71
2022/08/31 04:53:40;;;;;;;127.68;49.03;;;17.80;99.90;;;17.12;100.00;97548.69;4971696;28;20431;-72
2022/08/31 04:56:13;;;;;;;205.27;60.55;;;17.80;99.90;;;17.17;100.00;97556.63;4972069;28;20404;-71
2022/08/31 04:58:39;;;;;;;208.60;60.97;;;17.90;99.90;;;17.17;100.00;97562.78;4972123;28;20905;-72
2022/08/31 05:01:08;;;;;;;135.30;49.22;;;17.90;99.90;;;17.18;100.00;97563.56;4972014;28;20447;-72
2022/08/31 05:03:34;;;;;;;156.88;51.92;;;17.90;99.90;;;17.19;100.00;97559.81;4971557;28;20434;-72
2022/08/31 05:06:01;;;;;;;187.65;55.75;;;18.00;99.90;;;17.21;100.00;97558.47;4971954;28;20883;-71
2022/08/31 05:08:27;;;;;;;159.63;51.90;;;18.00;99.90;;;17.21;100.00;97561.13;4971916;28;20454;-71
2022/08/31 05:10:53;;;;;;;209.57;62.40;;;18.00;99.90;;;17.27;100.00;97567.19;4971478;28;20426;-72
2022/08/31 05:13:19;;;;;;;204.25;60.90;;;18.00;99.90;;;17.26;100.00;97560.25;4971355;28;20766;-72
2022/08/31 05:15:45;;;;;;;180.43;55.67;;;18.00;99.90;;;17.20;100.00;97570.22;4971436;28;20404;-72
2022/08/31 05:18:12;;;;;;;153.43;53.50;;;18.00;99.90;;;17.22;100.00;97564.56;4971750;28;20890;-72
2022/08/31 05:20:39;;;;;;;150.87;54.17;;;18.00;99.90;;;17.27;100.00;97573.34;4971847;28;20420;-72
2022/08/31 05:23:06;;;;;;;109.30;44.45;;;17.90;99.90;;;17.22;100.00;97577.94;4971236;28;20415;-72
2022/08/31 05:25:33;;;;;;;129.93;47.00;;;17.90;99.90;;;17.13;100.00;97575.16;4971722;28;20419;-71
2022/08/31 05:27:59;;;;;;;116.20;43.92;;;17.90;99.90;;;17.06;100.00;97574.72;4971673;28;20420;-71
2022/08/31 05:30:26;;;;;;;124.47;45.90;;;17.80;99.90;;;17.09;100.00;97576.00;4971463;28;20482;-71
2022/08/31 05:32:52;;;;;;;109.22;43.30;;;17.80;99.90;;;17.08;100.00;97571.72;4971122;28;20440;-71
2022/08/31 05:35:18;;;;;;;129.07;46.85;;;17.80;99.90;;;17.01;100.00;97572.88;4971585;28;20416;-72
2022/08/31 05:37:44;;;;;;;127.72;46.47;;;17.70;99.90;;;16.99;100.00;97572.38;4971632;28;20416;-71
2022/08/31 05:40:11;;;;;;;168.85;50.28;;;17.70;99.90;;;16.98;100.00;97578.81;4971418;28;20408;-72
2022/08/31 05:42:37;;;;;;;152.65;49.42;;;17.80;99.90;;;17.00;100.00;97587.34;4954127;28;20777;-71
2022/08/31 05:45:05;;;;;;;194.82;54.22;;;17.80;99.90;;;17.02;100.00;97587.06;4971317;28;20404;-71
2022/08/31 05:47:31;;;;;;;219.67;62.77;;;17.80;99.90;;;17.09;100.00;97594.72;4971460;28;20416;-71
2022/08/31 05:49:56;;;;;;;154.75;51.95;;;17.80;99.90;;;17.09;100.00;97597.41;4965382;28;20427;-73
2022/08/31 05:52:22;;;;;;;206.90;60.15;;;17.80;99.90;;;17.10;100.00;97594.44;4966644;28;20465;-72
2022/08/31 05:54:48;;;;;;;201.88;61.35;;;17.90;99.90;;;17.14;100.00;97608.03;4965593;28;20918;-72
2022/08/31 05:57:15;;;;;;;197.93;58.92;;;17.90;99.90;;;17.13;100.00;97604.56;4963250;28;20408;-72
2022/08/31 05:59:41;;;;;;;210.68;59.65;;;17.90;99.90;;;17.09;100.00;97605.41;4974191;28;20769;-72
2022/08/31 06:02:10;;;;;;;175.07;56.40;;;17.80;99.90;;;17.11;100.00;97608.59;4979576;28;20420;-72
2022/08/31 06:04:35;;;;;;;155.43;52.58;;;17.80;99.90;;;17.11;100.00;97609.41;4980702;28;20457;-71
2022/08/31 06:07:02;;;;;;;198.40;61.45;;;17.90;99.90;;;17.19;100.00;97603.41;4980783;28;20411;-73
2022/08/31 06:09:28;;;;;;;215.82;58.13;;;17.90;99.90;;;17.00;100.00;97614.06;4979550;28;20414;-72
2022/08/31 06:11:54;;;;;;;127.53;47.03;;;17.70;99.90;;;16.96;100.00;97614.94;4981217;28;20518;-72
2022/08/31 06:14:22;;;;;;;135.15;48.25;;;17.70;99.90;;;17.05;100.00;97623.13;4979929;28;20412;-72
2022/08/31 06:16:48;;;;;;;228.35;64.85;;;17.80;99.90;;;17.19;100.00;97613.31;4962089;28;20477;-72
2022/08/31 06:19:15;;;;;;;129.45;47.08;;;17.90;99.90;;;17.12;100.00;97611.00;4963817;28;20414;-73
2022/08/31 06:21:42;;;;;;;131.27;48.03;;;17.90;99.90;;;17.15;100.00;97621.09;4980588;28;20409;-73
2022/08/31 06:24:11;;;;;;;129.25;46.67;;;17.80;99.90;;;17.15;100.00;97625.66;4978793;28;20412;-73
2022/08/31 06:26:38;;;;;;;257.23;65.75;;;17.90;99.90;;;17.20;100.00;97631.75;4980749;28;20791;-73
2022/08/31 06:29:08;;;;;;;250.27;64.55;;;17.90;99.90;;;17.15;100.00;97631.81;4978923;28;20810;-73
2022/08/31 06:31:38;;;;;;;170.23;53.85;;;17.90;99.90;;;17.05;100.00;97631.16;4974576;28;20416;-73
2022/08/31 06:34:06;;;;;;;172.00;52.65;;;17.80;99.90;;;17.03;100.00;97631.44;4974195;28;20905;-72
2022/08/31 06:36:33;;;;;;;203.97;58.57;;;17.80;99.90;;;17.11;100.00;97630.81;4974385;28;20409;-73
2022/08/31 06:39:01;;;;;;;222.38;60.28;;;17.80;99.90;;;17.11;100.00;97630.81;4974464;28;20404;-73
2022/08/31 06:41:30;;;;;;;196.13;57.95;;;17.90;99.90;;;17.12;100.00;97628.94;4974540;28;20455;-73
2022/08/31 06:43:58;;;;;;;217.55;63.38;;;17.90;99.90;;;17.18;100.00;97619.75;4973997;28;20878;-73
2022/08/31 06:46:24;;;;;;;208.70;58.92;;;17.90;99.90;;;17.07;100.00;97627.09;4974554;28;20809;-73
2022/08/31 06:48:55;;;;;;;166.10;56.60;;;17.80;99.90;;;17.12;100.00;97627.06;4974560;28;20415;-73
2022/08/31 06:51:23;;;;;;;184.80;57.90;;;17.80;99.90;;;17.01;100.00;97625.56;4974160;28;20419;-73
2022/08/31 06:53:50;;;;;;;172.25;55.10;;;17.70;99.90;;;16.91;100.00;97631.06;4956533;28;20452;-73
2022/08/31 06:56:19;;;;;;;166.32;55.22;;;17.60;99.90;;;16.94;100.00;97625.94;4974225;28;20908;-74
2022/08/31 06:58:46;;;;;;;170.10;56.33;;;17.60;99.90;;;17.00;100.00;97626.66;4974305;28;20416;-73
2022/08/31 07:01:20;;;;;;;181.10;56.17;;;17.70;99.90;;;17.06;100.00;97632.75;4974184;28;20397;-73
2022/08/31 07:03:48;;;;;;;178.35;54.72;;;17.80;99.90;;;17.08;100.00;97628.69;4973862;28;20407;-73
2022/08/31 07:06:19;;;;;;;164.77;54.15;;;17.80;99.90;;;17.06;100.00;97630.88;4974157;28;20786;-73
2022/08/31 07:08:46;;;;;;;145.65;49.40;;;17.70;99.90;;;16.99;100.00;97633.06;4974061;28;20451;-73
2022/08/31 07:11:19;;;;;;;149.93;52.10;;;17.70;99.90;;;17.07;100.00;97637.00;4973838;28;20423;-73
2022/08/31 07:13:46;;;;;;;129.40;48.88;;;17.70;99.90;;;16.93;100.00;97637.69;4973552;28;20416;-72
2022/08/31 07:16:15;;;;;;;138.43;49.67;;;17.60;99.90;;;16.91;100.00;97639.88;4973965;28;20910;-73
2022/08/31 07:18:42;;;;;;;152.80;52.05;;;17.60;99.90;;;16.96;100.00;97642.50;4973929;28;20427;-73
2022/08/31 07:21:11;;;;;;;142.48;50.47;;;17.70;99.90;;;17.00;100.00;97650.72;4973571;28;20416;-73
2022/08/31 07:23:40;;;;;;;145.60;50.67;;;17.60;99.90;;;16.89;100.00;97649.25;4973350;28;20459;-73
2022/08/31 07:26:07;;;;;;;120.40;46.92;;;17.50;99.90;;;16.76;100.00;97644.59;4973771;28;20408;-74
2022/08/31 07:28:34;;;;;;;140.88;49.13;;;17.40;99.90;;;16.59;100.00;97648.47;4975938;28;20450;-74
2022/08/31 07:31:02;;;;;;;130.10;49.08;;;17.20;99.90;;;16.55;100.00;97639.41;4981003;28;20428;-74
2022/08/31 07:33:36;;;;;;;146.70;50.90;;;17.20;99.90;;;16.59;100.00;97640.47;4979444;28;20404;-73
2022/08/31 07:36:04;;;;;;;151.68;54.10;;;17.30;99.90;;;16.63;100.00;97640.72;4976014;28;20400;-72
2022/08/31 07:44:01;;;;;;;146.40;53.97;;;17.40;99.90;;;16.75;100.00;97646.47;4973054;28;20758;-72
2022/08/31 07:46:29;;;;;;;138.48;52.83;;;17.50;99.90;;;16.81;100.00;97647.22;4973292;28;20404;-71
2022/08/31 07:48:56;;;;;;;135.68;51.67;;;17.50;99.90;;;16.93;100.00;97651.06;4956098;28;20856;-71
2022/08/31 07:51:22;;;;;;;129.87;51.63;;;17.60;99.90;;;17.05;100.00;97645.34;4977221;23;20437;-73
2022/08/31 07:53:48;;;;;;;179.02;59.40;;;17.70;99.90;;;17.13;100.00;97646.56;4952991;29;20422;-72
2022/08/31 07:56:18;;;;;;;182.13;58.55;;;17.80;99.90;;;17.11;100.00;97652.22;4954126;29;20604;-75
2022/08/31 07:58:46;;;;;;;171.02;59.60;;;17.80;99.90;;;17.07;100.00;97653.84;4953800;29;20485;-75
2022/08/31 08:01:13;;;;;;;149.70;53.17;;;17.80;99.90;;;16.94;100.00;97663.38;4961804;28;20842;-77
2022/08/31 08:03:42;;;;;;;162.38;55.85;;;17.70;99.90;;;16.89;100.00;97662.63;4972599;28;20408;-77
2022/08/31 08:06:11;;;;;;;156.23;54.57;;;17.60;99.90;;;16.96;100.00;97660.41;4973026;28;20409;-77
2022/08/31 08:09:07;;;;;;;162.52;54.63;;;17.60;99.90;;;17.01;100.00;97650.44;4986614;28;20434;-78
2022/08/31 08:11:35;;;;;;;168.07;54.92;;;17.70;99.90;;;17.12;100.00;97653.00;4964389;28;20430;-74
2022/08/31 08:14:03;;;;;;;180.57;56.95;;;17.80;99.90;;;17.20;100.00;97661.19;4965702;28;20419;-73
2022/08/31 08:16:29;;;;;;;162.70;53.67;;;17.80;99.90;;;17.24;100.00;97659.53;4970986;28;20440;-76
2022/08/31 08:18:55;;;;;;;159.15;53.15;;;17.90;99.90;;;17.28;100.00;97663.25;4971694;28;20685;-76
2022/08/31 08:21:21;;;;;;;153.88;51.90;;;18.00;99.90;;;17.30;100.00;97660.25;4971522;28;20420;-76
2022/08/31 08:23:47;;;;;;;143.55;49.53;;;18.00;99.90;;;17.35;100.00;97662.88;4971130;28;20534;-76
2022/08/31 08:26:13;;;;;;;151.65;53.47;;;18.00;99.90;;;17.40;100.00;97662.81;4971507;28;20492;-76
2022/08/31 08:28:41;;;;;;;160.68;55.58;;;18.10;99.90;;;17.44;100.00;97669.19;4971447;28;20890;-76
2022/08/31 08:31:13;;;;;;;142.65;50.90;;;18.10;99.90;;;17.45;100.00;97665.41;4971780;28;20427;-76
2022/08/31 08:33:43;;;;;;;155.88;53.85;;;18.10;99.90;;;17.47;100.00;97667.78;4970578;28;20478;-78
2022/08/31 08:36:09;;;;;;;144.98;50.85;;;18.10;99.90;;;17.45;100.00;97665.41;4971451;28;20487;-78
2022/08/31 08:38:38;;;;;;;125.78;45.75;;;18.10;99.90;;;17.31;100.00;97673.34;4971825;28;20420;-77
2022/08/31 08:41:11;;;;;;;140.95;49.78;;;18.00;99.90;;;17.29;100.00;97677.41;4968067;28;20590;-76
2022/08/31 08:43:44;;;;;;;130.77;47.60;;;17.90;99.90;;;17.32;100.00;97684.84;4969917;28;20486;-85
2022/08/31 08:46:13;;;;;;;133.55;49.53;;;18.00;99.90;;;17.36;100.00;97675.97;4971321;28;20882;-84
2022/08/31 08:48:41;;;;;;;166.68;56.80;;;18.00;99.90;;;17.46;100.00;97685.72;4969858;28;20468;-85
2022/08/31 08:51:13;;;;;;;140.32;50.25;;;18.10;99.90;;;17.41;100.00;97691.97;4970059;28;21001;-84
2022/08/31 08:53:42;;;;;;;149.00;51.17;;;18.10;99.90;;;17.41;100.00;97685.81;4970278;28;20430;-84
2022/08/31 08:56:10;;;;;;;145.63;51.45;;;18.10;99.90;;;17.40;100.00;97690.38;4970967;28;20419;-79
2022/08/31 08:58:37;;;;;;;147.27;51.33;;;18.10;99.90;;;17.42;100.00;97695.44;4970858;28;20412;-79
2022/08/31 09:01:04;;;;;;;153.00;52.67;;;18.10;99.90;;;17.48;100.00;97693.47;4971102;28;20480;-76
2022/08/31 09:03:43;;;;;;;153.02;53.25;;;18.10;99.90;;;17.49;100.00;97690.53;4970241;28;20772;-81
2022/08/31 09:06:13;;;;;;;151.43;52.23;;;18.20;99.90;;;17.51;100.00;97696.41;4970913;28;20518;-78
2022/08/31 09:09:17;;;;;;;149.15;52.58;;;18.20;99.90;;;17.53;100.00;97696.09;4970726;28;20436;-79
2022/08/31 09:11:57;;;;;;;135.25;50.75;;;18.20;99.90;;;17.50;100.00;97699.34;4970640;28;20451;-79
2022/08/31 09:14:50;;;;;;;134.35;48.05;;;18.20;99.90;;;17.55;100.00;97705.44;4970109;28;20400;-81
2022/08/31 09:17:38;;;;;;;150.13;52.90;;;18.20;99.90;;;17.52;100.00;97703.31;4970778;28;20409;-79
2022/08/31 09:20:05;;;;;;;153.45;52.50;;;18.20;99.90;;;17.56;100.00;97706.22;4970620;28;20419;-81
2022/08/31 09:22:39;;;;;;;149.93;51.65;;;18.20;99.90;;;17.61;100.00;97706.16;4970487;28;20416;-81
2022/08/31 09:25:06;;;;;;;145.98;50.88;;;18.20;99.90;;;17.70;100.00;97704.47;4970594;28;20895;-83
2022/08/31 09:27:45;;;;;;;157.68;53.53;;;18.30;99.90;;;17.78;100.00;97709.16;4970760;28;20416;-80
2022/08/31 09:30:30;;;;;;;153.15;50.97;;;18.40;99.90;;;17.80;100.00;97707.00;4970784;28;20412;-80
2022/08/31 09:32:57;;;;;;;144.02;50.25;;;18.40;99.90;;;17.84;100.00;97708.00;4968796;28;20416;-81
2022/08/31 09:35:39;;;;;;;145.00;50.33;;;18.50;99.90;;;17.84;100.00;97710.69;4970469;28;20408;-79
2022/08/31 09:38:09;;;;;;;139.82;48.53;;;18.50;99.90;;;17.89;100.00;97713.31;4970499;28;20932;-78
2022/08/31 09:40:39;;;;;;;155.55;51.50;;;18.50;99.90;;;17.92;100.00;97711.91;4970423;28;20404;-79
2022/08/31 09:43:10;;;;;;;142.80;48.65;;;18.50;99.90;;;17.96;100.00;97710.25;4969821;28;20408;-79
2022/08/31 09:45:49;;;;;;;135.05;47.78;;;18.60;99.90;;;17.96;100.00;97716.41;4970390;28;20400;-80
2022/08/31 09:48:45;;;;;;;146.47;50.37;;;18.60;99.90;;;18.00;100.00;97712.06;4970393;28;20432;-79
2022/08/31 09:51:23;;;;;;;134.15;48.17;;;18.60;99.90;;;17.95;100.00;97716.69;4970093;28;20495;-78
2022/08/31 09:56:53;;;;;;;126.72;47.10;;;18.60;99.90;;;17.90;100.00;97708.72;4970341;28;20463;-79
2022/08/31 09:59:38;;;;;;;131.77;47.55;;;18.50;99.90;;;17.91;100.00;97711.13;4970264;28;20837;-77
2022/08/31 10:02:32;;;;;;;151.15;50.58;;;18.50;99.90;;;17.97;100.00;97709.94;4971566;28;20412;-79
2022/08/31 10:05:05;;;;;;;122.95;46.05;;;18.60;99.90;;;17.97;100.00;97709.16;4973514;28;20420;-81
2022/08/31 10:07:42;;;;;;;114.53;44.58;;;18.60;99.90;;;17.99;100.00;97718.50;4969372;28;20436;-78
2022/08/31 10:10:13;;;;;;;103.32;39.80;;;18.60;99.90;;;17.99;100.00;97713.13;4970202;28;20491;-81
2022/08/31 10:12:47;;;;;;;92.95;38.22;;;18.60;99.90;;;17.92;100.00;97709.22;4971515;28;20410;-80
2022/08/31 10:15:19;;;;;;;100.88;39.25;;;18.50;99.90;;;17.93;100.00;97718.88;4971790;28;20435;-79